createdAt,value
2019-02-18T00:01:32.161Z,4.55
2019-02-18T00:03:37.801Z,9.83
2019-02-18T00:05:43.809Z,6.55
2019-02-18T00:07:50.693Z,6.33
2019-02-18T00:09:58.176Z,8.30
2019-02-18T00:12:05.276Z,6.22
2019-02-18T00:14:11.618Z,5.42
2019-02-18T00:16:17.756Z,4.65
2019-02-18T00:18:23.442Z,7.65
2019-02-18T00:20:29.280Z,3.33
2019-02-18T00:22:35.276Z,9.15
2019-02-18T00:24:40.722Z,6.85
2019-02-18T00:26:47.494Z,13.72
2019-02-18T00:28:58.553Z,11.83
2019-02-18T00:31:03.734Z,6.42
2019-02-18T00:33:09.277Z,9.23
2019-02-18T00:35:24.054Z,7.15
2019-02-18T00:37:29.795Z,5.50
2019-02-18T00:39:35.302Z,3.98
2019-02-18T00:41:40.733Z,8.00
2019-02-18T00:43:47.125Z,5.90
2019-02-18T00:45:52.877Z,9.65
2019-02-18T00:47:58.573Z,4.55
2019-02-18T00:50:04.339Z,4.72
2019-02-18T00:52:09.973Z,6.45
2019-02-18T00:54:24.206Z,6.28
2019-02-18T00:56:30.491Z,5.00
2019-02-18T00:58:35.910Z,8.28
2019-02-18T01:00:43.961Z,4.47
2019-02-18T01:02:50.019Z,7.30
2019-02-18T01:04:55.554Z,7.08
2019-02-18T01:07:01.483Z,8.43
2019-02-18T01:09:08.740Z,7.30
2019-02-18T01:11:14.517Z,7.22
2019-02-18T01:13:20.475Z,7.47
2019-02-18T01:15:26.051Z,4.20
2019-02-18T01:17:32.269Z,5.17
2019-02-18T01:19:38.918Z,7.58
2019-02-18T01:21:44.334Z,8.10
2019-02-18T01:23:50.299Z,6.90
2019-02-18T01:26:03.499Z,6.70
2019-02-18T01:28:08.889Z,8.15
2019-02-18T01:30:16.314Z,10.72
2019-02-18T01:32:21.751Z,3.50
2019-02-18T01:34:27.474Z,4.25
2019-02-18T01:36:33.600Z,8.93
2019-02-18T01:38:42.027Z,5.25
2019-02-18T01:40:47.482Z,5.00
2019-02-18T01:42:52.914Z,7.37
2019-02-18T01:45:01.699Z,4.65
2019-02-18T01:47:09.185Z,5.60
2019-02-18T01:49:14.798Z,6.72
2019-02-18T01:51:20.294Z,6.15
2019-02-18T01:53:26.482Z,18.98
2019-02-18T01:55:32.025Z,4.80
2019-02-18T01:57:37.484Z,6.72
2019-02-18T01:59:42.940Z,7.12
2019-02-18T02:01:48.962Z,5.50
2019-02-18T02:03:55.329Z,6.95
2019-02-18T02:06:01.318Z,3.65
2019-02-18T02:08:06.991Z,8.03
2019-02-18T02:10:15.862Z,5.87
2019-02-18T02:12:21.578Z,4.28
2019-02-18T02:14:27.009Z,4.47
2019-02-18T02:16:35.023Z,10.48
2019-02-18T02:18:40.555Z,8.53
2019-02-18T02:20:46.037Z,7.28
2019-02-18T02:22:53.872Z,5.90
2019-02-18T02:24:59.490Z,9.78
2019-02-18T02:27:05.481Z,9.18
2019-02-18T02:29:11.945Z,7.50
2019-02-18T02:31:17.651Z,6.60
2019-02-18T02:33:23.546Z,9.00
2019-02-18T02:35:35.043Z,5.33
2019-02-18T02:37:40.462Z,5.15
2019-02-18T02:39:45.877Z,6.15
2019-02-18T02:41:53.313Z,4.15
2019-02-18T02:43:58.721Z,5.65
2019-02-18T02:46:04.124Z,7.37
2019-02-18T02:48:12.722Z,10.75
2019-02-18T02:50:18.190Z,4.03
2019-02-18T02:52:24.922Z,5.17
2019-02-18T02:54:30.459Z,6.85
2019-02-18T02:56:37.555Z,9.93
2019-02-18T02:58:43.782Z,6.67
2019-02-18T03:00:56.957Z,5.42
2019-02-18T03:03:02.445Z,4.42
2019-02-18T03:05:08.665Z,7.05
2019-02-18T03:07:14.285Z,4.28
2019-02-18T03:09:19.723Z,4.87
2019-02-18T03:11:25.277Z,7.87
2019-02-18T03:13:33.467Z,5.83
2019-02-18T03:15:40.631Z,7.22
2019-02-18T03:17:46.303Z,9.93
2019-02-18T03:19:51.802Z,8.40
2019-02-18T03:21:57.514Z,5.25
2019-02-18T03:24:03.050Z,3.83
2019-02-18T03:26:09.273Z,7.58
2019-02-18T03:28:54.794Z,4.83
2019-02-18T03:31:09.965Z,6.50
2019-02-18T03:33:18.305Z,6.15
2019-02-18T03:35:24.656Z,4.83
2019-02-18T03:37:30.387Z,4.75
2019-02-18T03:39:36.621Z,4.10
2019-02-18T03:41:45.585Z,3.37
2019-02-18T03:43:51.679Z,6.03
2019-02-18T03:45:57.358Z,8.18
2019-02-18T03:48:03.853Z,3.37
2019-02-18T03:50:11.072Z,5.00
2019-02-18T03:52:16.706Z,3.40
2019-02-18T03:54:22.117Z,6.80
2019-02-18T03:56:35.666Z,4.90
2019-02-18T03:58:41.270Z,4.10
2019-02-18T04:00:46.790Z,5.60
2019-02-18T04:02:52.971Z,6.78
2019-02-18T04:04:58.373Z,4.37
2019-02-18T04:07:04.226Z,5.75
2019-02-18T04:09:10.053Z,4.95
2019-02-18T04:11:16.011Z,5.12
2019-02-18T04:13:22.154Z,4.17
2019-02-18T04:15:27.702Z,5.33
2019-02-18T04:17:33.227Z,4.10
2019-02-18T04:19:38.774Z,6.72
2019-02-18T04:21:52.336Z,6.70
2019-02-18T04:23:58.198Z,5.37
2019-02-18T04:26:03.890Z,3.17
2019-02-18T04:28:10.575Z,4.58
2019-02-18T04:30:16.018Z,9.00
2019-02-18T04:32:21.417Z,3.02
2019-02-18T04:34:26.826Z,6.28
2019-02-18T04:36:32.306Z,5.83
2019-02-18T04:38:37.817Z,9.05
2019-02-18T04:40:44.654Z,9.13
2019-02-18T04:42:50.678Z,3.72
2019-02-18T04:44:56.193Z,8.78
2019-02-18T04:47:05.012Z,6.65
2019-02-18T04:49:12.101Z,8.98
2019-02-18T04:51:17.528Z,4.08
2019-02-18T04:53:23.166Z,4.85
2019-02-18T04:55:28.790Z,4.97
2019-02-18T04:57:34.303Z,10.15
2019-02-18T04:59:39.849Z,7.62
2019-02-18T05:01:45.269Z,5.12
2019-02-18T05:03:51.983Z,6.83
2019-02-18T05:05:57.971Z,7.70
2019-02-18T05:08:03.464Z,5.58
2019-02-18T05:10:09.705Z,5.92
2019-02-18T05:12:17.015Z,10.05
2019-02-18T05:14:22.910Z,5.10
2019-02-18T05:16:28.311Z,9.75
2019-02-18T05:18:33.754Z,5.17
2019-02-18T05:20:39.305Z,5.22
2019-02-18T05:22:44.830Z,3.70
2019-02-18T05:24:52.365Z,8.05
2019-02-18T05:26:58.468Z,4.70
2019-02-18T05:29:04.064Z,5.90
2019-02-18T05:31:09.693Z,4.47
2019-02-18T05:33:15.154Z,6.65
2019-02-18T05:35:20.666Z,6.87
2019-02-18T05:37:33.118Z,4.87
2019-02-18T05:39:38.961Z,4.15
2019-02-18T05:41:44.599Z,3.55
2019-02-18T05:43:51.203Z,3.92
2019-02-18T05:45:57.097Z,4.87
2019-02-18T05:48:02.723Z,7.40
2019-02-18T05:50:08.281Z,6.55
2019-02-18T05:52:14.083Z,6.40
2019-02-18T05:54:20.428Z,3.10
2019-02-18T05:56:26.175Z,7.03
2019-02-18T05:58:32.435Z,4.47
2019-02-18T06:00:38.112Z,3.92
2019-02-18T06:02:56.057Z,4.08
2019-02-18T06:05:01.583Z,3.65
2019-02-18T06:07:07.718Z,3.90
2019-02-18T06:09:13.781Z,6.62
2019-02-18T06:11:19.673Z,4.62
2019-02-18T06:13:25.739Z,4.50
2019-02-18T06:15:32.994Z,13.53
2019-02-18T06:17:42.498Z,5.22
2019-02-18T06:19:47.946Z,4.05
2019-02-18T06:21:53.520Z,4.22
2019-02-18T06:23:59.306Z,5.83
2019-02-18T06:26:04.804Z,4.65
2019-02-18T06:28:10.315Z,7.17
2019-02-18T06:30:16.035Z,4.95
2019-02-18T06:32:21.475Z,11.30
2019-02-18T06:34:27.167Z,6.12
2019-02-18T06:36:32.818Z,8.75
2019-02-18T06:38:38.328Z,5.33
2019-02-18T06:40:49.940Z,7.08
2019-02-18T06:42:55.594Z,6.60
2019-02-18T06:45:23.137Z,5.90
2019-02-18T06:47:30.078Z,6.05
2019-02-18T06:49:35.702Z,3.45
2019-02-18T06:51:45.294Z,6.72
2019-02-18T06:53:51.857Z,7.65
2019-02-18T06:55:59.820Z,5.78
2019-02-18T06:58:24.342Z,7.75
2019-02-18T07:00:44.687Z,5.03
2019-02-18T07:03:08.113Z,7.55
2019-02-18T07:05:30.150Z,6.58
2019-02-18T07:08:00.654Z,9.03
2019-02-18T07:10:12.679Z,7.22
2019-02-18T07:12:30.014Z,6.22
2019-02-18T07:14:35.540Z,4.15
2019-02-18T07:16:40.967Z,7.95
2019-02-18T07:18:49.232Z,9.28
2019-02-18T07:20:54.641Z,5.47
2019-02-18T07:23:00.210Z,6.33
2019-02-18T07:25:07.693Z,6.83
2019-02-18T07:27:13.594Z,6.17
2019-02-18T07:29:19.150Z,8.63
2019-02-18T07:31:27.778Z,8.50
2019-02-18T07:33:33.283Z,7.22
2019-02-18T07:35:38.838Z,5.60
2019-02-18T07:37:44.466Z,8.13
2019-02-18T07:39:49.885Z,10.63
2019-02-18T07:41:56.778Z,7.17
2019-02-18T07:44:02.338Z,8.95
2019-02-18T07:46:08.498Z,8.58
2019-02-18T07:48:14.555Z,7.97
2019-02-18T07:50:21.086Z,8.10
2019-02-18T07:52:26.655Z,5.92
2019-02-18T07:54:32.099Z,13.95
2019-02-18T07:56:37.421Z,4.97
2019-02-18T07:58:42.813Z,8.08
2019-02-18T08:00:48.457Z,5.25
2019-02-18T08:02:54.102Z,6.45
2019-02-18T08:04:59.254Z,8.30
2019-02-18T08:07:05.162Z,7.13
2019-02-18T08:09:10.439Z,7.37
2019-02-18T08:11:16.562Z,6.27
2019-02-18T08:13:22.949Z,10.80
2019-02-18T08:15:28.463Z,12.13
2019-02-18T08:17:33.606Z,7.07
2019-02-18T08:19:38.975Z,7.97
2019-02-18T08:21:44.286Z,8.10
2019-02-18T08:23:59.416Z,5.77
2019-02-18T08:25:56.367Z,9.70
2019-02-18T08:28:01.618Z,12.40
2019-02-18T08:30:08.429Z,5.03
2019-02-18T08:32:13.660Z,10.13
2019-02-18T08:34:18.946Z,5.10
2019-02-18T08:36:24.117Z,15.50
2019-02-18T08:38:31.015Z,8.33
2019-02-18T08:40:37.245Z,8.30
2019-02-18T08:42:42.495Z,6.50
2019-02-18T08:44:47.702Z,6.00
2019-02-18T08:46:52.958Z,10.53
2019-02-18T08:48:58.266Z,7.67
2019-02-18T08:51:03.854Z,8.43
2019-02-18T08:53:09.032Z,5.00
2019-02-18T08:55:14.319Z,6.47
2019-02-18T08:57:19.487Z,8.67
2019-02-18T08:59:26.531Z,7.93
2019-02-18T09:01:32.020Z,8.27
2019-02-18T09:03:37.389Z,9.27
2019-02-18T09:05:43.312Z,7.03
2019-02-18T09:07:48.680Z,10.03
2019-02-18T09:09:53.879Z,9.87
2019-02-18T09:11:59.183Z,5.13
2019-02-18T09:14:04.382Z,10.20
2019-02-18T09:16:09.750Z,9.00
2019-02-18T09:18:15.846Z,6.20
2019-02-18T09:20:21.104Z,7.67
2019-02-18T09:22:48.441Z,7.93
2019-02-18T09:25:06.486Z,9.17
2019-02-18T09:27:11.666Z,8.50
2019-02-18T09:29:16.822Z,6.90
2019-02-18T09:31:27.314Z,9.40
2019-02-18T09:33:33.571Z,8.10
2019-02-18T09:35:38.698Z,11.17
2019-02-18T09:37:45.999Z,12.30
2019-02-18T09:39:51.162Z,9.20
2019-02-18T09:41:56.300Z,6.87
2019-02-18T09:44:03.293Z,8.10
2019-02-18T09:46:08.737Z,13.07
2019-02-18T09:48:14.271Z,6.43
2019-02-18T09:50:25.738Z,9.10
2019-02-18T09:52:30.965Z,10.63
2019-02-18T09:54:36.286Z,18.50
2019-02-18T09:56:41.706Z,12.63
2019-02-18T09:58:46.933Z,16.23
2019-02-18T10:00:53.261Z,21.67
2019-02-18T10:03:07.235Z,15.20
2019-02-18T10:05:12.681Z,18.83
2019-02-18T10:07:17.980Z,14.70
2019-02-18T10:09:29.384Z,14.13
2019-02-18T10:11:34.567Z,14.40
2019-02-18T10:13:41.352Z,14.20
2019-02-18T10:15:47.907Z,16.73
2019-02-18T10:17:53.127Z,12.83
2019-02-18T10:19:58.411Z,12.97
2019-02-18T10:22:03.972Z,18.77
2019-02-18T10:24:10.159Z,17.90
2019-02-18T10:26:15.351Z,10.10
2019-02-18T10:28:21.442Z,12.13
2019-02-18T10:30:26.622Z,10.60
2019-02-18T10:32:32.690Z,13.10
2019-02-18T10:34:38.662Z,15.43
2019-02-18T10:36:43.966Z,17.17
2019-02-18T10:38:49.334Z,13.43
2019-02-18T10:40:54.470Z,15.40
2019-02-18T10:42:59.625Z,12.97
2019-02-18T10:45:05.441Z,14.70
2019-02-18T10:47:13.241Z,17.33
2019-02-18T10:49:22.232Z,15.53
2019-02-18T10:51:25.534Z,13.50
2019-02-18T10:53:30.783Z,17.67
2019-02-18T10:55:36.055Z,19.10
2019-02-18T10:57:41.286Z,19.23
2019-02-18T10:59:48.056Z,15.17
2019-02-18T11:01:53.253Z,14.10
2019-02-18T11:03:58.605Z,14.80
2019-02-18T11:06:04.135Z,21.77
2019-02-18T11:08:09.406Z,19.50
2019-02-18T11:10:16.334Z,17.83
2019-02-18T11:12:21.642Z,18.70
2019-02-18T11:14:27.023Z,14.13
2019-02-18T11:16:32.598Z,13.57
2019-02-18T11:18:38.814Z,12.17
2019-02-18T11:20:44.562Z,16.50
2019-02-18T11:22:49.797Z,12.70
2019-02-18T11:24:57.904Z,13.20
2019-02-18T11:27:03.075Z,20.73
2019-02-18T11:29:08.273Z,13.60
2019-02-18T11:31:13.506Z,13.53
2019-02-18T11:33:19.041Z,12.90
2019-02-18T11:35:24.365Z,17.67
2019-02-18T11:37:31.816Z,18.90
2019-02-18T11:39:37.030Z,16.57
2019-02-18T11:41:42.437Z,15.43
2019-02-18T11:43:48.762Z,16.50
2019-02-18T11:45:54.286Z,14.30
2019-02-18T11:47:59.530Z,14.03
2019-02-18T11:50:05.450Z,16.70
2019-02-18T11:52:10.633Z,26.70
2019-02-18T11:54:16.143Z,17.80
2019-02-18T11:56:24.461Z,14.30
2019-02-18T11:58:29.810Z,18.83
2019-02-18T12:00:34.986Z,17.20
2019-02-18T12:02:40.175Z,18.10
2019-02-18T12:04:45.713Z,21.43
2019-02-18T12:06:50.935Z,18.13
2019-02-18T12:08:56.809Z,18.03
2019-02-18T12:11:02.040Z,17.93
2019-02-18T12:13:07.361Z,22.33
2019-02-18T12:15:12.603Z,18.57
2019-02-18T12:17:20.529Z,12.93
2019-02-18T12:19:25.199Z,15.90
2019-02-18T12:21:32.850Z,15.43
2019-02-18T12:23:38.156Z,18.43
2019-02-18T12:25:43.526Z,20.23
2019-02-18T12:27:48.890Z,85.10
2019-02-18T12:29:54.479Z,11.57
2019-02-18T12:31:59.714Z,15.57
2019-02-18T12:34:06.095Z,14.37
2019-02-18T12:36:11.379Z,13.00
2019-02-18T12:38:17.490Z,13.07
2019-02-18T12:40:24.302Z,17.73
2019-02-18T12:42:29.526Z,11.63
2019-02-18T12:44:34.664Z,15.70
2019-02-18T12:46:40.004Z,11.93
2019-02-18T12:48:45.406Z,15.33
2019-02-18T12:50:50.662Z,19.20
2019-02-18T12:52:56.221Z,11.70
2019-02-18T12:55:01.526Z,11.00
2019-02-18T12:57:07.129Z,10.47
2019-02-18T12:59:12.330Z,17.93
2019-02-18T13:01:17.691Z,15.33
2019-02-18T13:03:22.945Z,17.60
2019-02-18T13:05:30.001Z,16.37
2019-02-18T13:07:36.569Z,15.60
2019-02-18T13:09:41.937Z,13.10
2019-02-18T13:11:47.150Z,8.50
2019-02-18T13:13:52.365Z,21.27
2019-02-18T13:15:57.618Z,11.00
2019-02-18T13:18:05.888Z,10.30
2019-02-18T13:20:11.179Z,12.07
2019-02-18T13:22:16.482Z,10.57
2019-02-18T13:24:22.025Z,16.17
2019-02-18T13:26:27.252Z,15.30
2019-02-18T13:28:32.895Z,10.60
2019-02-18T13:30:38.569Z,10.13
2019-02-18T13:32:44.273Z,12.67
2019-02-18T13:34:49.523Z,10.70
2019-02-18T13:36:58.769Z,14.27
2019-02-18T13:39:05.340Z,15.50
2019-02-18T13:41:11.483Z,11.90
2019-02-18T13:43:17.394Z,19.87
2019-02-18T13:45:22.793Z,15.50
2019-02-18T13:47:28.005Z,9.23
2019-02-18T13:49:33.405Z,15.67
2019-02-18T13:51:38.769Z,10.80
2019-02-18T13:53:43.984Z,10.20
2019-02-18T13:55:50.330Z,25.10
2019-02-18T13:57:55.706Z,19.43
2019-02-18T14:00:01.086Z,16.43
2019-02-18T14:02:08.284Z,16.60
2019-02-18T14:04:13.730Z,16.93
2019-02-18T14:06:19.471Z,9.93
2019-02-18T14:08:26.889Z,8.13
2019-02-18T14:10:32.345Z,13.77
2019-02-18T14:12:37.611Z,16.10
2019-02-18T14:14:49.137Z,9.30
2019-02-18T14:16:54.418Z,17.47
2019-02-18T14:18:59.639Z,9.27
2019-02-18T14:21:07.017Z,13.13
2019-02-18T14:23:12.350Z,19.60
2019-02-18T14:25:17.566Z,13.23
2019-02-18T14:27:23.146Z,11.33
2019-02-18T14:29:28.520Z,16.03
2019-02-18T14:31:34.978Z,18.33
2019-02-18T14:33:40.194Z,20.53
2019-02-18T14:35:45.521Z,11.33
2019-02-18T14:37:50.886Z,8.90
2019-02-18T14:39:56.317Z,13.47
2019-02-18T14:42:01.869Z,9.60
2019-02-18T14:44:07.231Z,9.47
2019-02-18T14:46:13.504Z,9.87
2019-02-18T14:48:19.505Z,10.33
2019-02-18T14:50:24.770Z,8.23
2019-02-18T14:52:30.766Z,8.60
2019-02-18T14:54:36.069Z,10.10
2019-02-18T14:56:42.864Z,9.73
2019-02-18T14:58:48.336Z,15.27
2019-02-18T15:00:53.570Z,29.63
2019-02-18T15:02:59.010Z,16.00
2019-02-18T15:05:07.757Z,12.77
2019-02-18T15:07:13.754Z,11.50
2019-02-18T15:09:19.426Z,17.77
2019-02-18T15:11:24.656Z,13.53
2019-02-18T15:13:30.321Z,11.37
2019-02-18T15:15:35.638Z,14.53
2019-02-18T15:17:41.313Z,13.53
2019-02-18T15:19:47.990Z,12.10
2019-02-18T15:21:53.477Z,10.30
2019-02-18T15:23:59.147Z,17.90
2019-02-18T15:26:04.766Z,11.83
2019-02-18T15:28:10.271Z,15.68
2019-02-18T15:30:17.397Z,10.65
2019-02-18T15:32:25.711Z,12.50
2019-02-18T15:34:31.226Z,11.03
2019-02-18T15:36:36.817Z,11.00
2019-02-18T15:38:42.372Z,11.22
2019-02-18T15:40:48.006Z,14.60
2019-02-18T15:42:53.953Z,33.05
2019-02-18T15:44:59.532Z,30.75
2019-02-18T15:47:05.077Z,28.57
2019-02-18T15:49:12.477Z,18.42
2019-02-18T15:51:17.976Z,11.68
2019-02-18T15:53:23.813Z,17.73
2019-02-18T15:55:29.679Z,9.15
2019-02-18T15:57:35.210Z,13.08
2019-02-18T15:59:40.833Z,16.20
2019-02-18T16:01:48.465Z,6.17
2019-02-18T16:03:54.967Z,9.73
2019-02-18T16:06:00.459Z,13.35
2019-02-18T16:08:06.057Z,15.72
2019-02-18T16:10:11.646Z,7.85
2019-02-18T16:12:17.166Z,9.65
2019-02-18T16:14:26.658Z,12.53
2019-02-18T16:16:32.138Z,7.97
2019-02-18T16:18:37.910Z,12.43
2019-02-18T16:20:43.605Z,8.50
2019-02-18T16:22:49.310Z,13.30
2019-02-18T16:24:55.349Z,12.55
2019-02-18T16:27:02.341Z,6.95
2019-02-18T16:29:07.803Z,6.67
2019-02-18T16:31:13.413Z,9.85
2019-02-18T16:33:19.630Z,16.02
2019-02-18T16:35:25.093Z,9.80
2019-02-18T16:37:30.808Z,15.30
2019-02-18T16:39:37.186Z,12.33
2019-02-18T16:41:43.473Z,10.93
2019-02-18T16:43:48.998Z,10.08
2019-02-18T16:45:57.821Z,12.28
2019-02-18T16:48:03.506Z,12.20
2019-02-18T16:50:09.743Z,7.62
2019-02-18T16:52:15.640Z,10.88
2019-02-18T16:54:21.573Z,11.50
2019-02-18T16:56:27.011Z,9.15
2019-02-18T16:58:33.448Z,12.45
2019-02-18T17:00:39.194Z,14.38
2019-02-18T17:02:45.034Z,8.15
2019-02-18T17:04:50.525Z,9.08
2019-02-18T17:06:56.013Z,11.10
2019-02-18T17:09:01.819Z,6.40
2019-02-18T17:17:02.490Z,8.35
2019-02-18T17:19:09.461Z,17.32
2019-02-18T17:21:14.879Z,17.48
2019-02-18T17:23:20.434Z,17.73
2019-02-18T17:25:26.086Z,17.55
2019-02-18T17:27:33.105Z,12.20
2019-02-18T17:29:38.894Z,9.53
2019-02-18T17:31:44.522Z,19.35
2019-02-18T17:33:50.301Z,16.73
2019-02-18T17:35:57.486Z,32.53
2019-02-18T17:38:04.846Z,39.45
2019-02-18T17:40:12.573Z,21.73
2019-02-18T17:42:18.695Z,24.12
2019-02-18T17:44:26.266Z,22.65
2019-02-18T17:46:32.245Z,17.77
2019-02-18T17:48:40.794Z,30.72
2019-02-18T17:50:53.406Z,31.52
2019-02-18T17:52:59.397Z,27.98
2019-02-18T17:55:05.457Z,33.92
2019-02-18T17:57:11.010Z,55.58
2019-02-18T17:59:18.481Z,39.58
2019-02-18T18:01:24.853Z,42.20
2019-02-18T18:03:30.651Z,53.63
2019-02-18T18:05:37.219Z,59.03
2019-02-18T18:07:44.018Z,40.40
2019-02-18T18:09:49.597Z,28.92
2019-02-18T18:12:01.077Z,45.50
2019-02-18T18:14:06.797Z,64.50
2019-02-18T18:16:12.361Z,55.90
2019-02-18T18:18:20.086Z,32.70
2019-02-18T18:20:25.595Z,25.17
2019-02-18T18:22:31.622Z,26.07
2019-02-18T18:24:38.578Z,33.65
2019-02-18T18:26:45.330Z,31.12
2019-02-18T18:28:50.841Z,20.52
2019-02-18T18:30:57.381Z,23.15
2019-02-18T18:33:05.351Z,36.15
2019-02-18T18:35:12.071Z,15.58
2019-02-18T18:37:19.252Z,38.88
2019-02-18T18:39:28.043Z,63.45
2019-02-18T18:41:34.196Z,67.78
2019-02-18T18:43:46.201Z,48.05
2019-02-18T18:45:51.889Z,26.50
2019-02-18T18:47:57.557Z,42.13
2019-02-18T18:50:07.457Z,45.33
2019-02-18T18:52:13.088Z,106.83
2019-02-18T18:54:19.126Z,122.17
2019-02-18T18:56:24.990Z,96.72
2019-02-18T18:58:30.962Z,48.23
2019-02-18T19:03:41.121Z,29.72
2019-02-18T19:05:46.633Z,34.88
2019-02-18T19:07:53.157Z,23.65
2019-02-18T19:09:59.574Z,50.43
2019-02-18T19:12:05.714Z,51.83
2019-02-18T19:14:13.457Z,53.92
2019-02-18T19:16:19.204Z,70.83
2019-02-18T19:18:26.161Z,41.02
2019-02-18T19:20:32.540Z,39.08
2019-02-18T19:22:39.950Z,31.75
2019-02-18T19:24:46.013Z,27.80
2019-02-18T19:26:55.893Z,37.20
2019-02-18T19:29:01.733Z,32.88
2019-02-18T19:31:07.661Z,31.77
2019-02-18T19:33:13.105Z,29.60
2019-02-18T19:35:19.374Z,42.38
2019-02-18T19:37:25.094Z,57.93
2019-02-18T19:39:36.330Z,39.27
2019-02-18T19:41:44.644Z,48.17
2019-02-18T19:43:53.477Z,47.73
2019-02-18T19:45:59.332Z,34.13
2019-02-18T19:48:05.393Z,27.22
2019-02-18T19:50:11.297Z,28.05
2019-02-18T19:52:16.901Z,33.20
2019-02-18T19:54:22.886Z,51.95
2019-02-18T19:56:29.458Z,59.83
2019-02-18T19:58:34.962Z,43.08
2019-02-18T20:00:43.100Z,33.55
2019-02-18T20:02:53.149Z,34.53
2019-02-18T20:05:02.519Z,44.30
2019-02-18T20:07:08.979Z,33.95
2019-02-18T20:09:15.916Z,19.37
2019-02-18T20:11:21.938Z,21.77
2019-02-18T20:13:27.969Z,21.02
2019-02-18T20:15:33.689Z,20.27
2019-02-18T20:17:41.145Z,19.10
2019-02-18T20:19:50.325Z,13.08
2019-02-18T20:21:56.178Z,31.20
2019-02-18T20:24:01.948Z,13.45
2019-02-18T20:26:09.970Z,14.90
2019-02-18T20:28:15.925Z,23.45
2019-02-18T20:30:21.925Z,38.33
2019-02-18T20:32:27.594Z,31.15
2019-02-18T20:34:33.077Z,37.25
2019-02-18T20:36:38.474Z,29.77
2019-02-18T20:38:44.007Z,30.37
2019-02-18T20:40:49.854Z,34.10
2019-02-18T20:42:55.569Z,35.00
2019-02-18T20:45:02.070Z,52.67
2019-02-18T20:47:08.122Z,56.30
2019-02-18T20:49:14.166Z,50.78
2019-02-18T20:51:20.630Z,51.10
2019-02-18T20:53:26.862Z,58.65
2019-02-18T20:55:32.662Z,29.57
2019-02-18T20:57:38.478Z,27.40
2019-02-18T20:59:44.181Z,18.12
2019-02-18T21:01:51.469Z,17.70
2019-02-18T21:03:58.028Z,19.80
2019-02-18T21:06:04.266Z,18.35
2019-02-18T21:08:09.778Z,19.05
2019-02-18T21:10:15.811Z,20.45
2019-02-18T21:12:21.534Z,21.02
2019-02-18T21:14:27.522Z,20.88
2019-02-18T21:16:35.673Z,21.95
2019-02-18T21:18:42.398Z,17.27
2019-02-18T21:20:47.902Z,19.17
2019-02-18T21:22:56.546Z,19.80
2019-02-18T21:25:02.030Z,17.55
2019-02-18T21:27:10.568Z,15.70
2019-02-18T21:29:22.471Z,18.87
2019-02-18T21:31:28.221Z,23.55
2019-02-18T21:33:33.736Z,18.62
2019-02-18T21:35:41.847Z,18.12
2019-02-18T21:37:47.433Z,17.92
2019-02-18T21:39:52.858Z,17.25
2019-02-18T21:41:58.822Z,15.70
2019-02-18T21:44:04.286Z,20.52
2019-02-18T21:46:09.798Z,12.13
2019-02-18T21:48:15.978Z,13.48
2019-02-18T21:50:21.501Z,21.15
2019-02-18T21:52:27.685Z,15.40
2019-02-18T21:54:33.473Z,18.15
2019-02-18T21:56:39.029Z,18.55
2019-02-18T21:58:44.720Z,13.65
2019-02-18T22:00:50.178Z,14.65
2019-02-18T22:02:55.649Z,23.32
2019-02-18T22:05:01.154Z,20.50
2019-02-18T22:07:07.213Z,16.75
2019-02-18T22:09:12.758Z,18.92
2019-02-18T22:11:18.206Z,15.50
2019-02-18T22:13:23.788Z,25.37
2019-02-18T22:15:29.400Z,24.85
2019-02-18T22:17:35.411Z,20.17
2019-02-18T22:19:41.930Z,15.20
2019-02-18T22:21:47.587Z,22.93
2019-02-18T22:23:53.174Z,10.65
2019-02-18T22:25:59.496Z,9.68
2019-02-18T22:28:07.967Z,14.47
2019-02-18T22:30:14.551Z,21.17
2019-02-18T22:32:20.413Z,13.13
2019-02-18T22:34:27.093Z,12.33
2019-02-18T22:36:32.625Z,12.13
2019-02-18T22:38:39.179Z,15.45
2019-02-18T22:40:45.356Z,21.20
2019-02-18T22:42:51.737Z,15.88
2019-02-18T22:44:57.911Z,11.33
2019-02-18T22:47:04.838Z,14.60
2019-02-18T22:49:10.562Z,23.85
2019-02-18T22:51:16.190Z,21.17
2019-02-18T22:53:22.565Z,15.13
2019-02-18T22:55:28.441Z,15.13
2019-02-18T22:57:34.088Z,18.00
2019-02-18T22:59:39.565Z,13.93
2019-02-18T23:01:46.437Z,14.73
2019-02-18T23:03:51.974Z,24.80
2019-02-18T23:05:59.766Z,21.87
2019-02-18T23:08:05.515Z,23.75
2019-02-18T23:10:11.580Z,28.75
2019-02-18T23:12:17.771Z,14.05
2019-02-18T23:14:28.153Z,16.80
2019-02-18T23:16:44.721Z,12.88
2019-02-18T23:18:51.699Z,16.00
2019-02-18T23:20:57.705Z,19.73
2019-02-18T23:23:05.105Z,11.90
2019-02-18T23:25:14.297Z,9.08
2019-02-18T23:27:19.734Z,10.08
2019-02-18T23:29:25.174Z,11.97
2019-02-18T23:31:30.657Z,13.10
2019-02-18T23:33:36.147Z,11.43
2019-02-18T23:35:44.919Z,12.82
2019-02-18T23:37:52.317Z,11.10
2019-02-18T23:39:57.917Z,11.25
2019-02-18T23:42:05.070Z,11.53
2019-02-18T23:44:10.789Z,8.05
2019-02-18T23:46:16.525Z,17.90
2019-02-18T23:48:23.338Z,9.28
2019-02-18T23:50:31.449Z,8.28
2019-02-18T23:52:36.887Z,10.93
2019-02-18T23:54:42.435Z,19.77
2019-02-18T23:56:47.869Z,15.65
2019-02-18T23:58:53.268Z,12.70
